sensor_id;sensor_type;location;lat;lon;timestamp;temperature;humidity
75769;DHT22;64379;48.888;8.330;2022-12-18T00:02:06;-6.50;83.30
75769;DHT22;64379;48.888;8.330;2022-12-18T00:04:32;-6.50;83.70
75769;DHT22;64379;48.888;8.330;2022-12-18T00:06:57;-6.40;83.60
75769;DHT22;64379;48.888;8.330;2022-12-18T00:09:23;-6.40;83.20
75769;DHT22;64379;48.888;8.330;2022-12-18T00:11:49;-6.40;83.00
75769;DHT22;64379;48.888;8.330;2022-12-18T00:14:14;-6.40;82.90
75769;DHT22;64379;48.888;8.330;2022-12-18T00:16:43;-6.50;83.00
75769;DHT22;64379;48.888;8.330;2022-12-18T00:19:10;-6.60;83.40
75769;DHT22;64379;48.888;8.330;2022-12-18T00:21:36;-6.70;83.70
75769;DHT22;64379;48.888;8.330;2022-12-18T00:24:01;-6.60;83.90
75769;DHT22;64379;48.888;8.330;2022-12-18T00:26:30;-6.50;83.60
75769;DHT22;64379;48.888;8.330;2022-12-18T00:29:14;-6.30;82.90
75769;DHT22;64379;48.888;8.330;2022-12-18T00:31:41;-6.40;82.50
75769;DHT22;64379;48.888;8.330;2022-12-18T00:34:10;-6.50;82.80
75769;DHT22;64379;48.888;8.330;2022-12-18T00:36:36;-6.70;83.00
75769;DHT22;64379;48.888;8.330;2022-12-18T00:39:03;-6.70;83.50
75769;DHT22;64379;48.888;8.330;2022-12-18T00:41:29;-6.80;83.80
75769;DHT22;64379;48.888;8.330;2022-12-18T00:44:16;-6.70;84.00
75769;DHT22;64379;48.888;8.330;2022-12-18T00:46:43;-6.80;83.90
75769;DHT22;64379;48.888;8.330;2022-12-18T00:49:09;-6.60;84.10
75769;DHT22;64379;48.888;8.330;2022-12-18T00:51:38;-6.70;83.60
75769;DHT22;64379;48.888;8.330;2022-12-18T00:54:04;-6.80;84.40
75769;DHT22;64379;48.888;8.330;2022-12-18T00:56:31;-6.80;84.90
75769;DHT22;64379;48.888;8.330;2022-12-18T00:58:56;-6.50;84.10
75769;DHT22;64379;48.888;8.330;2022-12-18T01:01:22;-6.30;82.70
75769;DHT22;64379;48.888;8.330;2022-12-18T01:03:47;-6.30;81.50
75769;DHT22;64379;48.888;8.330;2022-12-18T01:06:14;-6.20;81.40
75769;DHT22;64379;48.888;8.330;2022-12-18T01:08:40;-6.20;81.40
75769;DHT22;64379;48.888;8.330;2022-12-18T01:11:15;-6.30;81.30
75769;DHT22;64379;48.888;8.330;2022-12-18T01:13:41;-6.40;81.50
75769;DHT22;64379;48.888;8.330;2022-12-18T01:16:07;-6.30;80.70
75769;DHT22;64379;48.888;8.330;2022-12-18T01:18:34;-6.40;79.90
75769;DHT22;64379;48.888;8.330;2022-12-18T01:21:00;-6.30;80.00
75769;DHT22;64379;48.888;8.330;2022-12-18T01:23:28;-6.40;80.00
75769;DHT22;64379;48.888;8.330;2022-12-18T01:25:54;-6.50;80.00
75769;DHT22;64379;48.888;8.330;2022-12-18T01:28:19;-6.60;80.60
75769;DHT22;64379;48.888;8.330;2022-12-18T01:30:45;-6.50;80.20
75769;DHT22;64379;48.888;8.330;2022-12-18T01:33:11;-6.60;80.50
75769;DHT22;64379;48.888;8.330;2022-12-18T01:35:41;-6.70;80.80
75769;DHT22;64379;48.888;8.330;2022-12-18T01:38:07;-6.70;81.50
75769;DHT22;64379;48.888;8.330;2022-12-18T01:40:32;-6.60;81.20
75769;DHT22;64379;48.888;8.330;2022-12-18T01:42:58;-6.60;81.20
75769;DHT22;64379;48.888;8.330;2022-12-18T01:45:29;-6.80;81.60
75769;DHT22;64379;48.888;8.330;2022-12-18T01:48:21;-6.80;81.70
75769;DHT22;64379;48.888;8.330;2022-12-18T01:50:47;-7.00;82.40
75769;DHT22;64379;48.888;8.330;2022-12-18T01:53:19;-6.90;82.60
75769;DHT22;64379;48.888;8.330;2022-12-18T01:55:51;-6.70;82.30
75769;DHT22;64379;48.888;8.330;2022-12-18T01:58:19;-6.60;81.70
75769;DHT22;64379;48.888;8.330;2022-12-18T02:00:45;-6.70;81.70
75769;DHT22;64379;48.888;8.330;2022-12-18T02:03:10;-6.70;82.10
75769;DHT22;64379;48.888;8.330;2022-12-18T02:11:07;-6.60;81.60
75769;DHT22;64379;48.888;8.330;2022-12-18T02:24:52;-7.00;82.30
75769;DHT22;64379;48.888;8.330;2022-12-18T02:27:18;-6.90;82.40
75769;DHT22;64379;48.888;8.330;2022-12-18T02:29:53;-7.00;82.40
75769;DHT22;64379;48.888;8.330;2022-12-18T02:32:31;-6.90;82.70
75769;DHT22;64379;48.888;8.330;2022-12-18T02:34:59;-6.90;82.90
75769;DHT22;64379;48.888;8.330;2022-12-18T02:37:27;-7.00;82.70
75769;DHT22;64379;48.888;8.330;2022-12-18T02:39:55;-7.10;82.20
75769;DHT22;64379;48.888;8.330;2022-12-18T02:42:22;-7.30;83.20
75769;DHT22;64379;48.888;8.330;2022-12-18T02:44:50;-7.10;83.50
75769;DHT22;64379;48.888;8.330;2022-12-18T02:47:18;-7.00;83.40
75769;DHT22;64379;48.888;8.330;2022-12-18T02:57:55;-6.80;83.30
75769;DHT22;64379;48.888;8.330;2022-12-18T03:00:35;-7.00;82.90
75769;DHT22;64379;48.888;8.330;2022-12-18T03:03:09;-7.10;83.50
75769;DHT22;64379;48.888;8.330;2022-12-18T03:05:55;-7.00;83.70
75769;DHT22;64379;48.888;8.330;2022-12-18T03:08:25;-7.10;83.40
75769;DHT22;64379;48.888;8.330;2022-12-18T03:11:02;-7.10;83.90
75769;DHT22;64379;48.888;8.330;2022-12-18T03:13:36;-7.00;84.10
75769;DHT22;64379;48.888;8.330;2022-12-18T03:16:03;-7.00;83.90
75769;DHT22;64379;48.888;8.330;2022-12-18T03:18:39;-6.90;83.60
75769;DHT22;64379;48.888;8.330;2022-12-18T03:21:08;-7.00;83.50
75769;DHT22;64379;48.888;8.330;2022-12-18T03:23:39;-7.00;83.70
75769;DHT22;64379;48.888;8.330;2022-12-18T03:26:09;-6.90;83.60
75769;DHT22;64379;48.888;8.330;2022-12-18T03:28:42;-7.00;83.60
75769;DHT22;64379;48.888;8.330;2022-12-18T03:31:10;-7.10;83.80
75769;DHT22;64379;48.888;8.330;2022-12-18T03:33:54;-7.20;84.00
75769;DHT22;64379;48.888;8.330;2022-12-18T03:36:21;-7.20;84.10
75769;DHT22;64379;48.888;8.330;2022-12-18T03:38:47;-7.10;84.00
75769;DHT22;64379;48.888;8.330;2022-12-18T03:41:19;-7.10;83.40
75769;DHT22;64379;48.888;8.330;2022-12-18T03:44:15;-7.10;83.50
75769;DHT22;64379;48.888;8.330;2022-12-18T03:47:09;-7.20;84.00
75769;DHT22;64379;48.888;8.330;2022-12-18T03:52:30;-7.00;84.10
75769;DHT22;64379;48.888;8.330;2022-12-18T03:54:58;-7.10;83.60
75769;DHT22;64379;48.888;8.330;2022-12-18T03:57:27;-7.10;83.80
75769;DHT22;64379;48.888;8.330;2022-12-18T03:59:57;-7.10;84.20
75769;DHT22;64379;48.888;8.330;2022-12-18T04:02:25;-7.00;84.30
75769;DHT22;64379;48.888;8.330;2022-12-18T04:04:53;-6.90;83.70
75769;DHT22;64379;48.888;8.330;2022-12-18T04:07:21;-6.90;83.40
75769;DHT22;64379;48.888;8.330;2022-12-18T04:09:49;-7.00;83.30
75769;DHT22;64379;48.888;8.330;2022-12-18T04:12:15;-6.90;83.40
75769;DHT22;64379;48.888;8.330;2022-12-18T04:14:41;-6.90;83.20
75769;DHT22;64379;48.888;8.330;2022-12-18T04:17:06;-6.90;83.40
75769;DHT22;64379;48.888;8.330;2022-12-18T04:19:32;-7.00;83.20
75769;DHT22;64379;48.888;8.330;2022-12-18T04:21:57;-7.00;83.60
75769;DHT22;64379;48.888;8.330;2022-12-18T04:24:23;-6.90;83.60
75769;DHT22;64379;48.888;8.330;2022-12-18T04:26:49;-6.90;83.30
75769;DHT22;64379;48.888;8.330;2022-12-18T04:29:15;-6.90;83.60
75769;DHT22;64379;48.888;8.330;2022-12-18T04:31:41;-7.00;83.80
75769;DHT22;64379;48.888;8.330;2022-12-18T04:34:07;-7.00;84.00
75769;DHT22;64379;48.888;8.330;2022-12-18T04:36:32;-6.60;84.00
75769;DHT22;64379;48.888;8.330;2022-12-18T04:38:58;-6.70;83.30
75769;DHT22;64379;48.888;8.330;2022-12-18T04:41:23;-6.60;83.40
75769;DHT22;64379;48.888;8.330;2022-12-18T04:43:49;-6.50;83.00
75769;DHT22;64379;48.888;8.330;2022-12-18T04:46:14;-6.40;83.00
75769;DHT22;64379;48.888;8.330;2022-12-18T04:48:40;-6.40;82.20
75769;DHT22;64379;48.888;8.330;2022-12-18T04:51:06;-6.40;82.10
75769;DHT22;64379;48.888;8.330;2022-12-18T04:53:32;-6.50;82.30
75769;DHT22;64379;48.888;8.330;2022-12-18T04:56:11;-6.60;82.70
75769;DHT22;64379;48.888;8.330;2022-12-18T04:58:38;-6.70;82.90
75769;DHT22;64379;48.888;8.330;2022-12-18T05:01:04;-6.70;83.60
75769;DHT22;64379;48.888;8.330;2022-12-18T05:03:30;-6.80;83.20
75769;DHT22;64379;48.888;8.330;2022-12-18T05:05:56;-6.70;83.10
75769;DHT22;64379;48.888;8.330;2022-12-18T05:08:21;-6.80;82.90
75769;DHT22;64379;48.888;8.330;2022-12-18T05:10:47;-7.00;83.60
75769;DHT22;64379;48.888;8.330;2022-12-18T05:13:13;-7.00;84.00
75769;DHT22;64379;48.888;8.330;2022-12-18T05:15:38;-6.90;84.00
75769;DHT22;64379;48.888;8.330;2022-12-18T05:18:04;-6.80;83.40
75769;DHT22;64379;48.888;8.330;2022-12-18T05:20:30;-6.80;83.60
75769;DHT22;64379;48.888;8.330;2022-12-18T05:22:56;-6.90;83.40
75769;DHT22;64379;48.888;8.330;2022-12-18T05:25:22;-6.90;84.10
75769;DHT22;64379;48.888;8.330;2022-12-18T05:27:48;-6.80;83.50
75769;DHT22;64379;48.888;8.330;2022-12-18T05:30:14;-7.00;83.70
75769;DHT22;64379;48.888;8.330;2022-12-18T05:32:41;-6.80;83.30
75769;DHT22;64379;48.888;8.330;2022-12-18T05:35:09;-6.60;82.70
75769;DHT22;64379;48.888;8.330;2022-12-18T05:37:35;-6.80;82.70
75769;DHT22;64379;48.888;8.330;2022-12-18T05:40:02;-6.70;83.20
75769;DHT22;64379;48.888;8.330;2022-12-18T05:42:27;-6.70;82.70
75769;DHT22;64379;48.888;8.330;2022-12-18T05:44:53;-6.90;82.70
75769;DHT22;64379;48.888;8.330;2022-12-18T05:47:19;-6.70;83.30
75769;DHT22;64379;48.888;8.330;2022-12-18T05:49:44;-6.60;83.00
75769;DHT22;64379;48.888;8.330;2022-12-18T05:52:10;-6.80;82.70
75769;DHT22;64379;48.888;8.330;2022-12-18T05:54:35;-6.50;83.00
75769;DHT22;64379;48.888;8.330;2022-12-18T05:57:01;-6.40;82.60
75769;DHT22;64379;48.888;8.330;2022-12-18T05:59:26;-6.50;82.10
75769;DHT22;64379;48.888;8.330;2022-12-18T06:01:52;-6.50;82.10
75769;DHT22;64379;48.888;8.330;2022-12-18T06:04:18;-6.30;81.90
75769;DHT22;64379;48.888;8.330;2022-12-18T06:06:43;-6.30;81.50
75769;DHT22;64379;48.888;8.330;2022-12-18T06:09:09;-6.70;82.20
75769;DHT22;64379;48.888;8.330;2022-12-18T06:11:38;-6.70;82.50
75769;DHT22;64379;48.888;8.330;2022-12-18T06:14:05;-6.90;83.50
75769;DHT22;64379;48.888;8.330;2022-12-18T06:16:31;-6.70;83.50
75769;DHT22;64379;48.888;8.330;2022-12-18T06:19:01;-6.70;83.20
75769;DHT22;64379;48.888;8.330;2022-12-18T06:21:28;-6.70;83.10
75769;DHT22;64379;48.888;8.330;2022-12-18T06:23:54;-6.50;82.80
75769;DHT22;64379;48.888;8.330;2022-12-18T06:26:19;-6.30;81.70
75769;DHT22;64379;48.888;8.330;2022-12-18T06:28:45;-6.30;81.50
75769;DHT22;64379;48.888;8.330;2022-12-18T06:31:11;-6.50;82.30
75769;DHT22;64379;48.888;8.330;2022-12-18T06:33:37;-6.60;83.20
75769;DHT22;64379;48.888;8.330;2022-12-18T06:36:11;-6.50;82.70
75769;DHT22;64379;48.888;8.330;2022-12-18T06:38:39;-6.60;82.20
75769;DHT22;64379;48.888;8.330;2022-12-18T06:41:17;-6.60;81.90
75769;DHT22;64379;48.888;8.330;2022-12-18T06:43:44;-6.40;81.60
75769;DHT22;64379;48.888;8.330;2022-12-18T06:46:10;-6.50;81.10
75769;DHT22;64379;48.888;8.330;2022-12-18T06:48:37;-6.40;81.30
75769;DHT22;64379;48.888;8.330;2022-12-18T06:51:03;-6.40;81.20
75769;DHT22;64379;48.888;8.330;2022-12-18T06:53:29;-6.60;82.10
75769;DHT22;64379;48.888;8.330;2022-12-18T06:56:06;-6.50;82.50
75769;DHT22;64379;48.888;8.330;2022-12-18T06:58:32;-6.60;82.40
75769;DHT22;64379;48.888;8.330;2022-12-18T07:01:01;-6.70;82.80
75769;DHT22;64379;48.888;8.330;2022-12-18T07:03:27;-6.80;83.40
75769;DHT22;64379;48.888;8.330;2022-12-18T07:05:53;-6.60;83.20
75769;DHT22;64379;48.888;8.330;2022-12-18T07:08:18;-6.60;82.70
75769;DHT22;64379;48.888;8.330;2022-12-18T07:10:44;-6.70;83.30
75769;DHT22;64379;48.888;8.330;2022-12-18T07:13:09;-6.70;82.80
75769;DHT22;64379;48.888;8.330;2022-12-18T07:15:35;-6.60;82.50
75769;DHT22;64379;48.888;8.330;2022-12-18T07:18:01;-6.70;82.80
75769;DHT22;64379;48.888;8.330;2022-12-18T07:20:26;-6.70;83.00
75769;DHT22;64379;48.888;8.330;2022-12-18T07:22:52;-6.60;83.40
75769;DHT22;64379;48.888;8.330;2022-12-18T07:25:17;-6.50;82.80
75769;DHT22;64379;48.888;8.330;2022-12-18T07:27:43;-6.40;82.30
75769;DHT22;64379;48.888;8.330;2022-12-18T07:30:09;-6.40;82.10
75769;DHT22;64379;48.888;8.330;2022-12-18T07:32:35;-6.30;80.90
75769;DHT22;64379;48.888;8.330;2022-12-18T07:35:01;-6.30;80.30
75769;DHT22;64379;48.888;8.330;2022-12-18T07:37:26;-6.30;80.50
75769;DHT22;64379;48.888;8.330;2022-12-18T07:39:52;-6.30;79.90
75769;DHT22;64379;48.888;8.330;2022-12-18T07:42:17;-6.30;79.90
75769;DHT22;64379;48.888;8.330;2022-12-18T07:44:59;-6.40;79.60
75769;DHT22;64379;48.888;8.330;2022-12-18T07:47:31;-6.40;79.70
75769;DHT22;64379;48.888;8.330;2022-12-18T07:49:59;-6.50;79.90
75769;DHT22;64379;48.888;8.330;2022-12-18T07:52:24;-6.60;80.40
75769;DHT22;64379;48.888;8.330;2022-12-18T07:54:50;-6.60;80.40
75769;DHT22;64379;48.888;8.330;2022-12-18T07:57:16;-6.40;79.70
75769;DHT22;64379;48.888;8.330;2022-12-18T07:59:42;-6.40;79.80
75769;DHT22;64379;48.888;8.330;2022-12-18T08:02:08;-6.40;79.70
75769;DHT22;64379;48.888;8.330;2022-12-18T08:04:36;-6.40;79.70
75769;DHT22;64379;48.888;8.330;2022-12-18T08:07:02;-6.40;79.70
75769;DHT22;64379;48.888;8.330;2022-12-18T08:09:28;-6.50;80.00
75769;DHT22;64379;48.888;8.330;2022-12-18T08:11:53;-6.60;80.20
75769;DHT22;64379;48.888;8.330;2022-12-18T08:14:19;-6.70;81.00
75769;DHT22;64379;48.888;8.330;2022-12-18T08:16:45;-6.50;80.70
75769;DHT22;64379;48.888;8.330;2022-12-18T08:19:10;-6.40;80.40
75769;DHT22;64379;48.888;8.330;2022-12-18T08:21:37;-6.40;80.30
75769;DHT22;64379;48.888;8.330;2022-12-18T08:24:02;-6.40;80.00
75769;DHT22;64379;48.888;8.330;2022-12-18T08:26:30;-6.20;80.10
75769;DHT22;64379;48.888;8.330;2022-12-18T08:28:56;-6.50;79.40
75769;DHT22;64379;48.888;8.330;2022-12-18T08:31:23;-6.50;80.00
75769;DHT22;64379;48.888;8.330;2022-12-18T08:33:50;-6.30;80.20
75769;DHT22;64379;48.888;8.330;2022-12-18T08:36:16;-6.10;80.20
75769;DHT22;64379;48.888;8.330;2022-12-18T08:38:42;-6.00;79.00
75769;DHT22;64379;48.888;8.330;2022-12-18T08:41:10;-5.80;78.90
75769;DHT22;64379;48.888;8.330;2022-12-18T08:43:36;-5.70;78.50
75769;DHT22;64379;48.888;8.330;2022-12-18T08:46:21;-5.50;77.90
75769;DHT22;64379;48.888;8.330;2022-12-18T08:48:49;-5.60;77.20
75769;DHT22;64379;48.888;8.330;2022-12-18T08:51:16;-5.50;77.80
75769;DHT22;64379;48.888;8.330;2022-12-18T08:53:42;-5.60;77.70
75769;DHT22;64379;48.888;8.330;2022-12-18T08:56:09;-5.60;78.40
75769;DHT22;64379;48.888;8.330;2022-12-18T08:58:35;-5.40;77.60
75769;DHT22;64379;48.888;8.330;2022-12-18T09:01:05;-5.60;77.70
75769;DHT22;64379;48.888;8.330;2022-12-18T09:03:31;-5.60;77.90
75769;DHT22;64379;48.888;8.330;2022-12-18T09:05:57;-5.50;77.60
75769;DHT22;64379;48.888;8.330;2022-12-18T09:08:23;-5.60;77.00
75769;DHT22;64379;48.888;8.330;2022-12-18T09:10:49;-5.60;76.30
75769;DHT22;64379;48.888;8.330;2022-12-18T09:13:16;-5.80;77.60
75769;DHT22;64379;48.888;8.330;2022-12-18T09:15:47;-5.80;77.80
75769;DHT22;64379;48.888;8.330;2022-12-18T09:18:14;-5.70;78.00
75769;DHT22;64379;48.888;8.330;2022-12-18T09:20:41;-5.70;77.90
75769;DHT22;64379;48.888;8.330;2022-12-18T09:23:07;-5.70;78.50
75769;DHT22;64379;48.888;8.330;2022-12-18T09:25:34;-6.00;79.00
75769;DHT22;64379;48.888;8.330;2022-12-18T09:28:05;-5.80;79.30
75769;DHT22;64379;48.888;8.330;2022-12-18T09:30:31;-5.80;79.80
75769;DHT22;64379;48.888;8.330;2022-12-18T09:32:58;-5.60;78.90
75769;DHT22;64379;48.888;8.330;2022-12-18T09:35:24;-5.60;78.40
75769;DHT22;64379;48.888;8.330;2022-12-18T09:37:50;-5.70;78.70
75769;DHT22;64379;48.888;8.330;2022-12-18T09:40:19;-5.90;79.40
75769;DHT22;64379;48.888;8.330;2022-12-18T09:42:51;-5.90;78.90
75769;DHT22;64379;48.888;8.330;2022-12-18T09:45:18;-5.60;79.20
75769;DHT22;64379;48.888;8.330;2022-12-18T09:47:45;-5.20;78.20
75769;DHT22;64379;48.888;8.330;2022-12-18T09:50:34;-5.10;77.80
75769;DHT22;64379;48.888;8.330;2022-12-18T09:53:15;-4.90;76.60
75769;DHT22;64379;48.888;8.330;2022-12-18T09:55:45;-5.10;76.80
75769;DHT22;64379;48.888;8.330;2022-12-18T09:58:43;-4.90;76.40
75769;DHT22;64379;48.888;8.330;2022-12-18T10:01:12;-5.10;76.60
75769;DHT22;64379;48.888;8.330;2022-12-18T10:03:39;-5.10;76.80
75769;DHT22;64379;48.888;8.330;2022-12-18T10:09:32;-5.70;77.20
75769;DHT22;64379;48.888;8.330;2022-12-18T10:12:07;-5.60;78.00
75769;DHT22;64379;48.888;8.330;2022-12-18T10:14:46;-5.20;78.50
75769;DHT22;64379;48.888;8.330;2022-12-18T10:17:26;-5.00;76.60
75769;DHT22;64379;48.888;8.330;2022-12-18T10:20:02;-5.00;77.20
75769;DHT22;64379;48.888;8.330;2022-12-18T10:28:26;-4.90;77.20
75769;DHT22;64379;48.888;8.330;2022-12-18T10:30:54;-4.80;77.10
75769;DHT22;64379;48.888;8.330;2022-12-18T10:33:22;-4.60;76.10
75769;DHT22;64379;48.888;8.330;2022-12-18T10:35:53;-4.80;76.30
75769;DHT22;64379;48.888;8.330;2022-12-18T10:38:21;-4.60;76.70
75769;DHT22;64379;48.888;8.330;2022-12-18T10:46:18;-4.60;75.90
75769;DHT22;64379;48.888;8.330;2022-12-18T10:51:28;-4.50;75.70
75769;DHT22;64379;48.888;8.330;2022-12-18T10:53:57;-4.40;75.60
75769;DHT22;64379;48.888;8.330;2022-12-18T10:56:27;-4.80;76.20
75769;DHT22;64379;48.888;8.330;2022-12-18T10:59:03;-4.80;77.10
75769;DHT22;64379;48.888;8.330;2022-12-18T11:01:46;-4.60;76.50
75769;DHT22;64379;48.888;8.330;2022-12-18T11:04:17;-4.20;75.70
75769;DHT22;64379;48.888;8.330;2022-12-18T11:09:28;-4.60;76.60
75769;DHT22;64379;48.888;8.330;2022-12-18T11:11:56;-4.40;76.10
75769;DHT22;64379;48.888;8.330;2022-12-18T11:14:34;-4.10;75.50
75769;DHT22;64379;48.888;8.330;2022-12-18T11:17:00;-4.60;75.70
75769;DHT22;64379;48.888;8.330;2022-12-18T11:19:37;-4.50;76.70
75769;DHT22;64379;48.888;8.330;2022-12-18T11:22:31;-4.40;76.70
75769;DHT22;64379;48.888;8.330;2022-12-18T11:25:00;-4.30;77.00
75769;DHT22;64379;48.888;8.330;2022-12-18T11:27:26;-4.20;75.00
75769;DHT22;64379;48.888;8.330;2022-12-18T11:33:21;-4.30;76.20
75769;DHT22;64379;48.888;8.330;2022-12-18T11:35:51;-4.10;75.60
75769;DHT22;64379;48.888;8.330;2022-12-18T11:41:02;-4.10;75.00
75769;DHT22;64379;48.888;8.330;2022-12-18T11:43:38;-4.30;75.20
75769;DHT22;64379;48.888;8.330;2022-12-18T11:46:11;-4.00;74.50
75769;DHT22;64379;48.888;8.330;2022-12-18T11:48:49;-3.80;74.20
75769;DHT22;64379;48.888;8.330;2022-12-18T11:51:27;-3.80;73.60
75769;DHT22;64379;48.888;8.330;2022-12-18T11:53:54;-3.80;73.50
75769;DHT22;64379;48.888;8.330;2022-12-18T12:01:50;-3.80;73.70
75769;DHT22;64379;48.888;8.330;2022-12-18T12:21:12;-3.20;71.70
75769;DHT22;64379;48.888;8.330;2022-12-18T12:26:42;-3.80;72.80
75769;DHT22;64379;48.888;8.330;2022-12-18T12:38:16;-3.70;73.00
75769;DHT22;64379;48.888;8.330;2022-12-18T12:40:54;-3.70;74.30
75769;DHT22;64379;48.888;8.330;2022-12-18T12:43:44;-3.90;74.30
75769;DHT22;64379;48.888;8.330;2022-12-18T12:46:14;-3.70;74.20
75769;DHT22;64379;48.888;8.330;2022-12-18T12:48:50;-3.60;74.20
75769;DHT22;64379;48.888;8.330;2022-12-18T12:53:48;-3.50;73.00
75769;DHT22;64379;48.888;8.330;2022-12-18T12:56:17;-3.70;73.40
75769;DHT22;64379;48.888;8.330;2022-12-18T12:59:01;-3.80;74.50
75769;DHT22;64379;48.888;8.330;2022-12-18T13:01:49;-3.80;74.00
75769;DHT22;64379;48.888;8.330;2022-12-18T13:07:08;-4.00;75.10
75769;DHT22;64379;48.888;8.330;2022-12-18T13:18:23;-4.00;75.30
75769;DHT22;64379;48.888;8.330;2022-12-18T13:25:56;-4.00;74.80
75769;DHT22;64379;48.888;8.330;2022-12-18T13:31:08;-3.60;74.30
75769;DHT22;64379;48.888;8.330;2022-12-18T13:38:47;-3.60;72.80
75769;DHT22;64379;48.888;8.330;2022-12-18T13:41:33;-3.80;73.70
75769;DHT22;64379;48.888;8.330;2022-12-18T13:44:27;-3.50;73.00
75769;DHT22;64379;48.888;8.330;2022-12-18T13:46:56;-4.00;73.70
75769;DHT22;64379;48.888;8.330;2022-12-18T13:49:37;-3.80;74.40
75769;DHT22;64379;48.888;8.330;2022-12-18T13:52:19;-3.90;73.90
75769;DHT22;64379;48.888;8.330;2022-12-18T13:54:53;-3.80;74.30
75769;DHT22;64379;48.888;8.330;2022-12-18T13:57:30;-3.70;73.80
75769;DHT22;64379;48.888;8.330;2022-12-18T13:59:57;-3.50;73.40
75769;DHT22;64379;48.888;8.330;2022-12-18T14:02:26;-3.40;73.20
75769;DHT22;64379;48.888;8.330;2022-12-18T14:04:52;-3.50;73.00
75769;DHT22;64379;48.888;8.330;2022-12-18T14:07:23;-3.80;73.90
75769;DHT22;64379;48.888;8.330;2022-12-18T14:09:52;-3.60;73.80
75769;DHT22;64379;48.888;8.330;2022-12-18T14:12:22;-3.50;73.40
75769;DHT22;64379;48.888;8.330;2022-12-18T14:20:34;-3.50;73.50
75769;DHT22;64379;48.888;8.330;2022-12-18T14:23:00;-3.50;73.40
75769;DHT22;64379;48.888;8.330;2022-12-18T14:25:27;-3.50;73.00
75769;DHT22;64379;48.888;8.330;2022-12-18T14:30:30;-3.60;73.90
75769;DHT22;64379;48.888;8.330;2022-12-18T14:33:19;-3.60;73.20
75769;DHT22;64379;48.888;8.330;2022-12-18T14:40:51;-4.20;75.50
75769;DHT22;64379;48.888;8.330;2022-12-18T14:43:17;-4.30;75.70
75769;DHT22;64379;48.888;8.330;2022-12-18T14:45:43;-4.30;75.90
75769;DHT22;64379;48.888;8.330;2022-12-18T14:48:19;-4.40;76.50
75769;DHT22;64379;48.888;8.330;2022-12-18T14:50:45;-4.30;76.50
75769;DHT22;64379;48.888;8.330;2022-12-18T14:53:43;-4.30;76.20
75769;DHT22;64379;48.888;8.330;2022-12-18T14:56:24;-4.50;76.80
75769;DHT22;64379;48.888;8.330;2022-12-18T14:58:54;-4.60;76.80
75769;DHT22;64379;48.888;8.330;2022-12-18T15:03:51;-4.60;77.40
75769;DHT22;64379;48.888;8.330;2022-12-18T15:06:25;-4.80;77.70
75769;DHT22;64379;48.888;8.330;2022-12-18T15:08:51;-4.90;78.00
75769;DHT22;64379;48.888;8.330;2022-12-18T15:11:44;-5.00;78.50
75769;DHT22;64379;48.888;8.330;2022-12-18T15:16:58;-5.10;79.20
75769;DHT22;64379;48.888;8.330;2022-12-18T15:19:43;-5.00;79.00
75769;DHT22;64379;48.888;8.330;2022-12-18T15:22:33;-5.00;79.00
75769;DHT22;64379;48.888;8.330;2022-12-18T15:25:00;-5.00;78.80
75769;DHT22;64379;48.888;8.330;2022-12-18T15:27:33;-5.10;79.10
75769;DHT22;64379;48.888;8.330;2022-12-18T15:32:33;-4.90;79.00
75769;DHT22;64379;48.888;8.330;2022-12-18T15:37:43;-5.00;79.00
75769;DHT22;64379;48.888;8.330;2022-12-18T15:42:39;-4.90;78.90
75769;DHT22;64379;48.888;8.330;2022-12-18T15:45:23;-5.10;79.20
75769;DHT22;64379;48.888;8.330;2022-12-18T15:47:49;-5.00;79.00
75769;DHT22;64379;48.888;8.330;2022-12-18T15:50:15;-5.00;78.90
75769;DHT22;64379;48.888;8.330;2022-12-18T15:52:45;-5.00;79.00
75769;DHT22;64379;48.888;8.330;2022-12-18T15:55:19;-5.10;79.20
75769;DHT22;64379;48.888;8.330;2022-12-18T15:58:05;-5.20;79.70
75769;DHT22;64379;48.888;8.330;2022-12-18T16:00:32;-5.10;79.70
75769;DHT22;64379;48.888;8.330;2022-12-18T16:02:59;-5.10;79.70
75769;DHT22;64379;48.888;8.330;2022-12-18T16:05:26;-5.10;80.10
75769;DHT22;64379;48.888;8.330;2022-12-18T16:07:51;-5.10;79.80
75769;DHT22;64379;48.888;8.330;2022-12-18T16:10:17;-4.90;79.10
75769;DHT22;64379;48.888;8.330;2022-12-18T16:12:43;-4.90;79.10
75769;DHT22;64379;48.888;8.330;2022-12-18T16:15:12;-5.00;79.10
75769;DHT22;64379;48.888;8.330;2022-12-18T16:17:39;-4.80;79.00
75769;DHT22;64379;48.888;8.330;2022-12-18T16:20:07;-4.90;79.20
75769;DHT22;64379;48.888;8.330;2022-12-18T16:22:33;-4.90;79.10
75769;DHT22;64379;48.888;8.330;2022-12-18T16:24:59;-4.90;79.40
75769;DHT22;64379;48.888;8.330;2022-12-18T16:27:25;-5.00;79.70
75769;DHT22;64379;48.888;8.330;2022-12-18T16:29:51;-5.00;79.90
75769;DHT22;64379;48.888;8.330;2022-12-18T16:32:19;-5.10;80.20
75769;DHT22;64379;48.888;8.330;2022-12-18T16:34:45;-5.10;80.30
75769;DHT22;64379;48.888;8.330;2022-12-18T16:37:12;-4.90;80.20
75769;DHT22;64379;48.888;8.330;2022-12-18T16:39:39;-4.90;80.00
75769;DHT22;64379;48.888;8.330;2022-12-18T16:42:15;-4.70;79.60
75769;DHT22;64379;48.888;8.330;2022-12-18T16:44:43;-4.90;80.10
75769;DHT22;64379;48.888;8.330;2022-12-18T16:47:09;-4.90;80.50
75769;DHT22;64379;48.888;8.330;2022-12-18T16:49:34;-4.70;79.90
75769;DHT22;64379;48.888;8.330;2022-12-18T16:52:05;-4.80;79.70
75769;DHT22;64379;48.888;8.330;2022-12-18T16:54:30;-4.70;79.80
75769;DHT22;64379;48.888;8.330;2022-12-18T16:56:58;-4.90;80.20
75769;DHT22;64379;48.888;8.330;2022-12-18T16:59:25;-4.60;79.80
75769;DHT22;64379;48.888;8.330;2022-12-18T17:01:51;-4.70;79.70
75769;DHT22;64379;48.888;8.330;2022-12-18T17:04:17;-4.90;80.20
75769;DHT22;64379;48.888;8.330;2022-12-18T17:06:44;-4.90;80.50
75769;DHT22;64379;48.888;8.330;2022-12-18T17:09:12;-4.90;80.50
75769;DHT22;64379;48.888;8.330;2022-12-18T17:11:39;-4.90;80.60
75769;DHT22;64379;48.888;8.330;2022-12-18T17:14:11;-4.80;80.20
75769;DHT22;64379;48.888;8.330;2022-12-18T17:16:37;-4.80;80.10
75769;DHT22;64379;48.888;8.330;2022-12-18T17:19:03;-4.80;80.00
75769;DHT22;64379;48.888;8.330;2022-12-18T17:21:29;-4.90;80.50
75769;DHT22;64379;48.888;8.330;2022-12-18T17:23:55;-4.80;80.20
75769;DHT22;64379;48.888;8.330;2022-12-18T17:26:23;-4.80;80.20
75769;DHT22;64379;48.888;8.330;2022-12-18T17:28:49;-4.90;80.20
75769;DHT22;64379;48.888;8.330;2022-12-18T17:31:22;-4.80;80.10
75769;DHT22;64379;48.888;8.330;2022-12-18T17:33:48;-4.80;80.20
75769;DHT22;64379;48.888;8.330;2022-12-18T17:36:14;-4.90;80.10
75769;DHT22;64379;48.888;8.330;2022-12-18T17:38:43;-4.90;80.60
75769;DHT22;64379;48.888;8.330;2022-12-18T17:41:14;-5.00;81.30
75769;DHT22;64379;48.888;8.330;2022-12-18T17:43:39;-5.00;81.20
75769;DHT22;64379;48.888;8.330;2022-12-18T17:46:11;-4.70;80.40
75769;DHT22;64379;48.888;8.330;2022-12-18T17:48:38;-4.80;80.40
75769;DHT22;64379;48.888;8.330;2022-12-18T17:51:06;-4.80;80.30
75769;DHT22;64379;48.888;8.330;2022-12-18T17:53:32;-4.80;80.40
75769;DHT22;64379;48.888;8.330;2022-12-18T17:55:59;-4.70;80.40
75769;DHT22;64379;48.888;8.330;2022-12-18T17:58:26;-4.80;80.80
75769;DHT22;64379;48.888;8.330;2022-12-18T18:00:52;-4.80;80.70
75769;DHT22;64379;48.888;8.330;2022-12-18T18:03:18;-4.60;81.00
75769;DHT22;64379;48.888;8.330;2022-12-18T18:05:43;-4.90;80.80